createdAt,value
2023-03-15T00:02:01.370Z,100675.06
2023-03-15T00:04:28.781Z,100682.97
2023-03-15T00:06:55.684Z,100693.88
2023-03-15T00:09:22.412Z,100706.16
2023-03-15T00:11:49.492Z,100708.91
2023-03-15T00:14:16.206Z,100710.53
2023-03-15T00:16:43.621Z,100716.00
2023-03-15T00:19:11.750Z,100709.72
2023-03-15T00:21:40.245Z,100712.44
2023-03-15T00:24:07.377Z,100717.38
2023-03-15T00:26:34.093Z,100714.66
2023-03-15T00:29:00.763Z,100713.84
2023-03-15T00:31:30.977Z,100707.56
2023-03-15T00:33:58.236Z,100707.03
2023-03-15T00:36:25.352Z,100696.94
2023-03-15T00:38:54.111Z,100698.34
2023-03-15T00:41:22.483Z,100693.44
2023-03-15T00:43:49.493Z,100685.31
2023-03-15T00:46:17.432Z,100684.50
2023-03-15T00:48:47.987Z,100686.69
2023-03-15T00:51:17.831Z,100688.09
2023-03-15T00:53:45.921Z,100690.81
2023-03-15T00:56:15.781Z,100691.38
2023-03-15T00:58:43.112Z,100687.56
2023-03-15T01:01:15.543Z,100691.06
2023-03-15T01:03:42.577Z,100693.00
2023-03-15T01:06:11.824Z,100698.47
2023-03-15T01:08:38.753Z,100697.41
2023-03-15T01:11:09.303Z,100689.78
2023-03-15T01:13:36.481Z,100703.75
2023-03-15T01:16:03.988Z,100702.41
2023-03-15T01:18:31.133Z,100709.53
2023-03-15T01:20:58.404Z,100704.13
2023-03-15T01:23:25.324Z,100705.78
2023-03-15T01:25:52.073Z,100706.38
2023-03-15T01:28:18.732Z,100697.66
2023-03-15T01:30:52.861Z,100688.94
2023-03-15T01:33:21.002Z,100689.75
2023-03-15T01:35:48.428Z,100694.63
2023-03-15T01:38:15.298Z,100685.38
2023-03-15T01:40:46.346Z,100694.13
2023-03-15T01:43:16.663Z,100686.19
2023-03-15T01:46:01.589Z,100686.25
2023-03-15T01:48:39.732Z,100687.84
2023-03-15T01:51:16.437Z,100690.88
2023-03-15T01:53:48.179Z,100694.41
2023-03-15T01:56:15.506Z,100695.75
2023-03-15T01:58:45.665Z,100699.03
2023-03-15T02:01:14.516Z,100700.16
2023-03-15T02:03:46.709Z,100707.56
2023-03-15T02:06:19.550Z,100715.78
2023-03-15T02:08:51.842Z,100710.88
2023-03-15T02:11:21.618Z,100706.81
2023-03-15T02:13:50.057Z,100698.94
2023-03-15T02:16:17.935Z,100698.09
2023-03-15T02:18:44.807Z,100691.03
2023-03-15T02:21:32.411Z,100683.66
2023-03-15T02:24:04.899Z,100692.38
2023-03-15T02:26:43.215Z,100693.47
2023-03-15T02:29:10.486Z,100697.81
2023-03-15T02:31:38.244Z,100689.13
2023-03-15T02:34:07.472Z,100692.88
2023-03-15T02:36:36.088Z,100691.81
2023-03-15T02:39:16.706Z,100673.25
2023-03-15T02:41:48.274Z,100669.44
2023-03-15T02:44:37.420Z,100659.59
2023-03-15T02:47:08.742Z,100660.13
2023-03-15T02:49:42.774Z,100650.84
2023-03-15T02:52:10.041Z,100645.41
2023-03-15T02:54:36.766Z,100650.28
2023-03-15T02:57:06.568Z,100649.47
2023-03-15T02:59:33.256Z,100647.56
2023-03-15T03:01:59.985Z,100642.91
2023-03-15T03:04:26.750Z,100633.63
2023-03-15T03:06:53.399Z,100628.72
2023-03-15T03:09:20.547Z,100628.72
2023-03-15T03:11:47.358Z,100629.25
2023-03-15T03:14:15.522Z,100625.13
2023-03-15T03:16:42.808Z,100630.59
2023-03-15T03:19:12.632Z,100624.56
2023-03-15T03:21:39.459Z,100622.38
2023-03-15T03:24:06.399Z,100619.88
2023-03-15T03:26:33.356Z,100615.78
2023-03-15T03:29:00.129Z,100612.75
2023-03-15T03:31:28.172Z,100612.47
2023-03-15T03:33:57.404Z,100587.13
2023-03-15T03:36:25.034Z,100595.00
2023-03-15T03:38:52.450Z,100590.94
2023-03-15T03:41:20.879Z,100586.31
2023-03-15T03:43:47.516Z,100591.75
2023-03-15T03:46:14.207Z,100596.63
2023-03-15T03:48:40.912Z,100596.91
2023-03-15T03:51:07.601Z,100599.38
2023-03-15T03:53:34.184Z,100602.09
2023-03-15T03:56:04.157Z,100599.38
2023-03-15T03:58:30.845Z,100596.63
2023-03-15T04:00:57.642Z,100587.88
2023-03-15T04:03:27.358Z,100586.50
2023-03-15T04:05:55.361Z,100583.78
2023-03-15T04:08:24.352Z,100575.84
2023-03-15T04:10:55.406Z,100579.72
2023-03-15T04:13:25.563Z,100576.16
2023-03-15T04:15:52.381Z,100591.44
2023-03-15T04:18:19.135Z,100587.06
2023-03-15T04:20:47.388Z,100576.47
2023-03-15T04:23:15.671Z,100583.53
2023-03-15T04:25:42.682Z,100581.31
2023-03-15T04:28:12.900Z,100581.56
2023-03-15T04:30:39.600Z,100584.81
2023-03-15T04:33:06.248Z,100578.25
2023-03-15T04:35:34.874Z,100573.06
2023-03-15T04:38:02.171Z,100575.22
2023-03-15T04:40:29.135Z,100585.06
2023-03-15T04:42:56.131Z,100587.78
2023-03-15T04:45:26.975Z,100586.69
2023-03-15T04:47:54.350Z,100585.31
2023-03-15T04:50:22.226Z,100590.97
2023-03-15T04:52:49.220Z,100588.78
2023-03-15T04:55:15.938Z,100589.31
2023-03-15T04:57:42.954Z,100577.88
2023-03-15T05:00:12.975Z,100576.47
2023-03-15T05:02:41.780Z,100580.31
2023-03-15T05:05:10.417Z,100578.97
2023-03-15T05:07:38.147Z,100578.97
2023-03-15T05:10:06.525Z,100582.50
2023-03-15T05:12:33.990Z,100570.78
2023-03-15T05:15:00.899Z,100576.25
2023-03-15T05:17:28.018Z,100568.88
2023-03-15T05:19:54.697Z,100572.94
2023-03-15T05:22:25.602Z,100578.91
2023-03-15T05:24:53.823Z,100575.88
2023-03-15T05:27:20.984Z,100577.28
2023-03-15T05:29:47.658Z,100582.47
2023-03-15T05:32:14.415Z,100577.81
2023-03-15T05:34:42.920Z,100568.00
2023-03-15T05:37:09.890Z,100567.19
2023-03-15T05:39:36.556Z,100571.25
2023-03-15T05:42:03.234Z,100572.06
2023-03-15T05:44:29.831Z,100575.84
2023-03-15T05:46:56.512Z,100572.81
2023-03-15T05:49:23.130Z,100567.06
2023-03-15T05:51:49.778Z,100568.41
2023-03-15T05:54:16.437Z,100555.56
2023-03-15T05:56:43.094Z,100564.28
2023-03-15T05:59:09.785Z,100565.09
2023-03-15T06:01:36.392Z,100568.38
2023-03-15T06:04:03.129Z,100556.84
2023-03-15T06:06:31.547Z,100545.66
2023-03-15T06:08:59.921Z,100543.75
2023-03-15T06:11:26.560Z,100553.53
2023-03-15T06:13:53.270Z,100533.84
2023-03-15T06:16:19.991Z,100530.03
2023-03-15T06:18:46.787Z,100527.81
2023-03-15T06:21:13.472Z,100529.16
2023-03-15T06:23:40.725Z,100530.47
2023-03-15T06:26:07.662Z,100518.47
2023-03-15T06:28:34.506Z,100522.22
2023-03-15T06:31:09.093Z,100514.53
2023-03-15T06:33:35.848Z,100519.41
2023-03-15T06:36:03.019Z,100508.72
2023-03-15T06:38:31.264Z,100504.91
2023-03-15T06:41:02.106Z,100507.84
2023-03-15T06:43:28.878Z,100496.63
2023-03-15T06:45:56.813Z,100503.44
2023-03-15T06:48:23.460Z,100499.56
2023-03-15T06:50:50.137Z,100500.09
2023-03-15T06:53:16.951Z,100502.53
2023-03-15T06:55:44.436Z,100492.44
2023-03-15T06:58:12.299Z,100505.19
2023-03-15T07:00:39.362Z,100501.06
2023-03-15T07:03:06.048Z,100490.63
2023-03-15T07:05:32.723Z,100499.38
2023-03-15T07:07:59.466Z,100490.03
2023-03-15T07:10:26.072Z,100489.78
2023-03-15T07:12:53.133Z,100481.78
2023-03-15T07:15:19.825Z,100478.75
2023-03-15T07:17:46.486Z,100480.09
2023-03-15T07:20:13.313Z,100471.31
2023-03-15T07:22:40.180Z,100475.88
2023-03-15T07:25:07.566Z,100465.94
2023-03-15T07:27:34.396Z,100461.22
2023-03-15T07:30:01.358Z,100461.13
2023-03-15T07:32:28.294Z,100446.88
2023-03-15T07:34:58.369Z,100455.78
2023-03-15T07:37:25.057Z,100463.41
2023-03-15T07:39:51.760Z,100460.56
2023-03-15T07:42:18.613Z,100462.72
2023-03-15T07:44:45.345Z,100463.72
2023-03-15T07:47:12.150Z,100466.38
2023-03-15T07:49:38.746Z,100460.00
2023-03-15T07:52:05.548Z,100464.88
2023-03-15T07:54:34.437Z,100461.53
2023-03-15T07:57:01.113Z,100463.16
2023-03-15T07:59:27.815Z,100465.59
2023-03-15T08:01:54.943Z,100459.81
2023-03-15T08:04:21.573Z,100463.88
2023-03-15T08:06:48.292Z,100462.94
2023-03-15T08:09:15.469Z,100454.16
2023-03-15T08:11:43.438Z,100450.81
2023-03-15T08:14:11.396Z,100449.72
2023-03-15T08:16:38.157Z,100463.56
2023-03-15T08:19:04.953Z,100466.03
2023-03-15T08:21:33.760Z,100459.13
2023-03-15T08:24:01.288Z,100458.81
2023-03-15T08:26:27.948Z,100453.84
2023-03-15T08:28:54.593Z,100453.25
2023-03-15T08:31:21.640Z,100447.16
2023-03-15T08:33:49.000Z,100448.78
2023-03-15T08:36:15.670Z,100437.25
2023-03-15T08:38:42.309Z,100440.47
2023-03-15T08:41:08.911Z,100449.19
2023-03-15T08:43:35.538Z,100445.84
2023-03-15T08:46:02.305Z,100447.47
2023-03-15T08:48:29.675Z,100445.75
2023-03-15T08:50:57.603Z,100440.25
2023-03-15T08:53:24.315Z,100438.84
2023-03-15T08:55:52.029Z,100437.41
2023-03-15T08:58:18.649Z,100439.06
2023-03-15T09:00:45.297Z,100430.53
2023-03-15T09:03:13.063Z,100425.88
2023-03-15T09:05:40.333Z,100427.50
2023-03-15T09:08:07.080Z,100440.56
2023-03-15T09:10:34.433Z,100437.53
2023-03-15T09:13:01.075Z,100411.47
2023-03-15T09:15:29.115Z,100420.16
2023-03-15T09:17:55.769Z,100412.16
2023-03-15T09:20:28.149Z,100418.13
2023-03-15T09:22:56.027Z,100413.97
2023-03-15T09:25:24.053Z,100411.72
2023-03-15T09:27:51.176Z,100413.84
2023-03-15T09:30:18.380Z,100405.34
2023-03-15T09:32:45.932Z,100406.16
2023-03-15T09:35:16.055Z,100403.91
2023-03-15T09:37:45.607Z,100414.25
2023-03-15T09:40:24.064Z,100408.78
2023-03-15T09:43:14.023Z,100395.09
2023-03-15T09:45:59.764Z,100402.47
2023-03-15T09:48:26.421Z,100386.88
2023-03-15T09:51:13.857Z,100383.81
2023-03-15T09:53:50.584Z,100380.56
2023-03-15T09:56:28.166Z,100381.41
2023-03-15T09:58:59.796Z,100375.91
2023-03-15T10:01:33.042Z,100360.91
2023-03-15T10:04:08.070Z,100368.00
2023-03-15T10:06:38.419Z,100366.06
2023-03-15T10:09:13.885Z,100357.03
2023-03-15T10:12:17.762Z,100358.34
2023-03-15T10:15:12.156Z,100351.44
2023-03-15T10:17:47.923Z,100346.97
2023-03-15T10:20:25.760Z,100340.06
2023-03-15T10:22:59.653Z,100344.31
2023-03-15T10:25:29.350Z,100324.19
2023-03-15T10:28:08.124Z,100320.22
2023-03-15T10:30:40.658Z,100312.66
2023-03-15T10:33:10.123Z,100312.53
2023-03-15T10:35:38.082Z,100304.19
2023-03-15T10:38:15.556Z,100307.91
2023-03-15T10:40:54.558Z,100298.44
2023-03-15T10:43:25.236Z,100302.16
2023-03-15T10:46:04.199Z,100304.44
2023-03-15T10:48:33.308Z,100305.13
2023-03-15T10:51:28.945Z,100289.00
2023-03-15T10:54:02.454Z,100282.91
2023-03-15T10:56:32.261Z,100282.75
2023-03-15T10:59:11.837Z,100274.72
2023-03-15T11:01:40.071Z,100280.53
2023-03-15T11:04:06.738Z,100275.22
2023-03-15T11:06:46.180Z,100262.47
2023-03-15T11:09:19.055Z,100260.72
2023-03-15T11:11:49.699Z,100247.50
2023-03-15T11:14:18.361Z,100242.19
2023-03-15T11:16:51.864Z,100238.47
2023-03-15T11:19:22.516Z,100233.94
2023-03-15T11:21:51.502Z,100225.56
2023-03-15T11:24:30.258Z,100233.66
2023-03-15T11:27:03.647Z,100225.25
2023-03-15T11:29:35.624Z,100213.63
2023-03-15T11:32:11.349Z,100207.50
2023-03-15T11:34:40.801Z,100206.53
2023-03-15T11:37:13.670Z,100194.09
2023-03-15T11:40:10.405Z,100197.81
2023-03-15T11:42:47.245Z,100191.66
2023-03-15T11:45:27.463Z,100184.06
2023-03-15T11:47:58.790Z,100179.53
2023-03-15T11:50:25.462Z,100170.34
2023-03-15T11:52:53.104Z,100165.81
2023-03-15T11:55:23.134Z,100169.53
2023-03-15T11:57:51.071Z,100161.41
2023-03-15T12:00:18.322Z,100148.97
2023-03-15T12:02:50.992Z,100160.78
2023-03-15T12:05:49.035Z,100148.31
2023-03-15T12:08:54.658Z,100146.06
2023-03-15T12:11:21.259Z,100132.31
2023-03-15T12:13:56.955Z,100128.91
2023-03-15T12:16:26.825Z,100134.41
2023-03-15T12:19:02.980Z,100120.03
2023-03-15T12:21:41.570Z,100125.38
2023-03-15T12:24:17.365Z,100109.50
2023-03-15T12:26:46.423Z,100113.53
2023-03-15T12:29:18.664Z,100106.56
2023-03-15T12:31:59.427Z,100094.94
2023-03-15T12:34:51.793Z,100081.34
2023-03-15T12:37:22.981Z,100082.63
2023-03-15T12:39:59.307Z,100070.63
2023-03-15T12:42:31.717Z,100059.78
2023-03-15T12:45:16.954Z,100049.72
2023-03-15T12:47:50.870Z,100048.25
2023-03-15T12:50:39.339Z,100031.09
2023-03-15T12:53:17.424Z,100033.66
2023-03-15T12:55:45.991Z,100024.75
2023-03-15T12:58:17.786Z,100028.44
2023-03-15T13:00:45.063Z,100019.19
2023-03-15T13:03:18.955Z,100005.09
2023-03-15T13:06:11.420Z,100007.53
2023-03-15T13:08:43.820Z,100005.25
2023-03-15T13:11:27.405Z,99997.13
2023-03-15T13:14:12.947Z,99989.34
2023-03-15T13:16:48.574Z,99983.50
2023-03-15T13:19:17.195Z,99984.00
2023-03-15T13:22:03.863Z,99985.25
2023-03-15T13:24:57.902Z,99977.47
2023-03-15T13:27:27.505Z,99960.63
2023-03-15T13:29:54.305Z,99967.38
2023-03-15T13:32:23.304Z,99954.91
2023-03-15T13:34:50.285Z,99947.94
2023-03-15T13:37:29.274Z,99952.09
2023-03-15T13:40:12.009Z,99945.22
2023-03-15T13:42:42.897Z,99936.75
2023-03-15T13:45:09.529Z,99924.72
2023-03-15T13:47:36.182Z,99929.19
2023-03-15T13:50:04.745Z,99913.63
2023-03-15T13:52:33.662Z,99917.78
2023-03-15T13:55:03.797Z,99902.16
2023-03-15T13:57:32.567Z,99901.34
2023-03-15T14:00:11.106Z,99886.81
2023-03-15T14:02:47.785Z,99878.56
2023-03-15T14:05:27.299Z,99873.06
2023-03-15T14:08:05.901Z,99869.16
2023-03-15T14:10:40.448Z,99875.47
2023-03-15T14:13:27.429Z,99861.69
2023-03-15T14:16:16.164Z,99864.09
2023-03-15T14:18:44.930Z,99863.88
2023-03-15T14:21:34.429Z,99843.69
2023-03-15T14:24:07.409Z,99830.84
2023-03-15T14:26:36.661Z,99832.56
2023-03-15T14:29:15.851Z,99820.41
2023-03-15T14:31:49.908Z,99816.16
2023-03-15T14:34:30.072Z,99813.41
2023-03-15T14:36:59.926Z,99808.22
2023-03-15T14:39:31.312Z,99812.13
2023-03-15T14:41:57.951Z,99803.44
2023-03-15T14:44:24.675Z,99794.81
2023-03-15T14:46:51.727Z,99785.88
2023-03-15T14:49:28.891Z,99778.50
2023-03-15T14:52:01.511Z,99773.91
2023-03-15T14:54:33.763Z,99763.78
2023-03-15T14:57:00.457Z,99764.34
2023-03-15T14:59:27.140Z,99749.91
2023-03-15T15:01:59.149Z,99748.06
2023-03-15T15:04:32.168Z,99746.88
2023-03-15T15:06:59.387Z,99737.94
2023-03-15T15:09:28.733Z,99733.22
2023-03-15T15:11:55.775Z,99734.03
2023-03-15T15:14:22.743Z,99730.09
2023-03-15T15:16:49.551Z,99721.50
2023-03-15T15:19:16.340Z,99713.25
2023-03-15T15:21:43.811Z,99717.25
2023-03-15T15:24:16.249Z,99715.31
2023-03-15T15:26:43.865Z,99720.00
2023-03-15T15:29:15.633Z,99711.75
2023-03-15T15:31:43.358Z,99700.72
2023-03-15T15:34:11.324Z,99700.38
2023-03-15T15:36:41.083Z,99693.72
2023-03-15T15:39:31.478Z,99689.34
2023-03-15T15:41:58.160Z,99683.03
2023-03-15T15:44:27.737Z,99679.13
2023-03-15T15:46:54.469Z,99669.72
2023-03-15T15:49:21.240Z,99673.25
2023-03-15T15:51:49.882Z,99661.09
2023-03-15T15:54:26.252Z,99657.97
2023-03-15T15:57:00.793Z,99640.66
2023-03-15T15:59:28.431Z,99639.84
2023-03-15T16:02:01.248Z,99633.53
2023-03-15T16:04:29.654Z,99637.91
2023-03-15T16:06:59.467Z,99627.22
2023-03-15T16:09:28.350Z,99625.28
2023-03-15T16:11:55.489Z,99608.75
2023-03-15T16:14:22.094Z,99599.34
2023-03-15T16:16:48.732Z,99596.59
2023-03-15T16:19:15.432Z,99596.59
2023-03-15T16:21:45.439Z,99594.28
2023-03-15T16:24:19.358Z,99601.38
2023-03-15T16:26:48.102Z,99598.28
2023-03-15T16:29:21.251Z,99587.25
2023-03-15T16:31:48.606Z,99584.94
2023-03-15T16:34:17.436Z,99581.84
2023-03-15T16:36:49.161Z,99570.81
2023-03-15T16:39:17.120Z,99577.91
2023-03-15T16:41:43.803Z,99574.81
2023-03-15T16:44:16.409Z,99577.19
2023-03-15T16:46:43.637Z,99569.38
2023-03-15T16:49:10.458Z,99563.84
2023-03-15T16:51:40.895Z,99560.78
2023-03-15T16:54:19.583Z,99559.25
2023-03-15T16:56:55.585Z,99560.06
2023-03-15T16:59:22.560Z,99545.47
2023-03-15T17:01:50.608Z,99544.31
2023-03-15T17:04:17.505Z,99545.09
2023-03-15T17:06:45.999Z,99541.19
2023-03-15T17:09:17.429Z,99537.28
2023-03-15T17:11:47.256Z,99532.94
2023-03-15T17:14:18.060Z,99527.06
2023-03-15T17:16:44.663Z,99523.16
2023-03-15T17:19:15.345Z,99504.19
2023-03-15T17:21:43.025Z,99510.19
2023-03-15T17:24:11.354Z,99505.00
2023-03-15T17:26:38.625Z,99493.97
2023-03-15T17:29:05.696Z,99497.19
2023-03-15T17:31:34.464Z,99502.69
2023-03-15T17:34:02.164Z,99480.63
2023-03-15T17:36:35.968Z,99486.97
2023-03-15T17:39:02.853Z,99480.63
2023-03-15T17:41:33.095Z,99464.56
2023-03-15T17:43:59.933Z,99478.34
2023-03-15T17:46:31.526Z,99468.91
2023-03-15T17:48:59.623Z,99468.91
2023-03-15T17:51:30.536Z,99463.38
2023-03-15T17:53:59.640Z,99463.38
2023-03-15T17:56:28.867Z,99455.13
2023-03-15T17:58:55.834Z,99442.50
2023-03-15T18:01:26.240Z,99450.78
2023-03-15T18:03:55.734Z,99442.50
2023-03-15T18:06:24.190Z,99444.09
2023-03-15T18:08:51.554Z,99435.81
2023-03-15T18:11:29.607Z,99439.03
2023-03-15T18:13:56.895Z,99430.78
2023-03-15T18:16:24.017Z,99424.09
2023-03-15T18:18:53.092Z,99424.09
2023-03-15T18:21:22.752Z,99418.13
2023-03-15T18:23:50.263Z,99431.56
2023-03-15T18:26:18.189Z,99417.44
2023-03-15T18:28:44.871Z,99417.06
2023-03-15T18:31:25.358Z,99410.72
2023-03-15T18:33:53.261Z,99409.59
2023-03-15T18:36:20.626Z,99407.63
2023-03-15T18:38:47.536Z,99408.44
2023-03-15T18:41:23.599Z,99400.16
2023-03-15T18:43:51.703Z,99402.94
2023-03-15T18:46:20.354Z,99400.59
2023-03-15T18:48:48.085Z,99395.50
2023-03-15T18:51:15.512Z,99398.69
2023-03-15T18:53:43.288Z,99397.19
2023-03-15T18:56:19.326Z,99394.06
2023-03-15T18:58:50.877Z,99395.31
2023-03-15T19:01:19.853Z,99385.09
2023-03-15T19:03:46.531Z,99386.66
2023-03-15T19:06:13.861Z,99377.25
2023-03-15T19:08:41.043Z,99381.59
2023-03-15T19:11:08.525Z,99380.47
2023-03-15T19:13:35.438Z,99385.97
2023-03-15T19:16:02.469Z,99384.03
2023-03-15T19:18:29.233Z,99384.81
2023-03-15T19:20:55.832Z,99378.13
2023-03-15T19:23:22.548Z,99380.88
2023-03-15T19:25:49.182Z,99372.63
2023-03-15T19:28:16.132Z,99376.59
2023-03-15T19:30:42.856Z,99369.13
2023-03-15T19:33:09.669Z,99371.56
2023-03-15T19:35:36.605Z,99373.13
2023-03-15T19:38:04.109Z,99371.16
2023-03-15T19:40:30.803Z,99370.81
2023-03-15T19:42:57.555Z,99362.97
2023-03-15T19:45:24.392Z,99365.38
2023-03-15T19:47:51.090Z,99366.97
2023-03-15T19:50:17.758Z,99365.00
2023-03-15T19:52:47.549Z,99361.88
2023-03-15T19:55:17.209Z,99363.50
2023-03-15T19:57:44.064Z,99355.63
2023-03-15T20:00:16.240Z,99358.81
2023-03-15T20:02:43.754Z,99361.59
2023-03-15T20:05:12.119Z,99358.03
2023-03-15T20:07:39.431Z,99352.50
2023-03-15T20:10:08.582Z,99356.50
2023-03-15T20:12:40.228Z,99350.97
2023-03-15T20:15:10.061Z,99342.34
2023-03-15T20:17:37.719Z,99344.72
2023-03-15T20:20:13.199Z,99343.94
2023-03-15T20:22:41.754Z,99325.00
2023-03-15T20:25:09.979Z,99325.81
2023-03-15T20:27:37.347Z,99339.59
2023-03-15T20:30:06.051Z,99332.13
2023-03-15T20:32:32.910Z,99336.47
2023-03-15T20:35:01.163Z,99333.69
2023-03-15T20:37:30.357Z,99319.09
2023-03-15T20:39:57.091Z,99325.41
2023-03-15T20:42:24.777Z,99323.84
2023-03-15T20:44:51.443Z,99319.47
2023-03-15T20:47:18.270Z,99323.84
2023-03-15T20:49:46.178Z,99308.88
2023-03-15T20:52:12.771Z,99320.72
2023-03-15T20:54:39.398Z,99311.63
2023-03-15T20:57:07.115Z,99311.63
2023-03-15T20:59:33.810Z,99306.13
2023-03-15T21:02:00.955Z,99302.56
2023-03-15T21:04:28.446Z,99292.31
2023-03-15T21:06:55.693Z,99289.56
2023-03-15T21:09:22.503Z,99284.84
2023-03-15T21:11:49.143Z,99281.28
2023-03-15T21:14:15.854Z,99285.66
2023-03-15T21:16:42.518Z,99279.34
2023-03-15T21:19:09.226Z,99276.22
2023-03-15T21:21:36.148Z,99271.47
2023-03-15T21:24:06.323Z,99277.81
2023-03-15T21:26:33.011Z,99275.03
2023-03-15T21:28:59.730Z,99272.28
2023-03-15T21:31:26.494Z,99274.25
2023-03-15T21:33:53.165Z,99264.81
2023-03-15T21:36:19.862Z,99265.19
2023-03-15T21:38:46.764Z,99265.19
2023-03-15T21:41:13.507Z,99261.25
2023-03-15T21:43:41.522Z,99262.06
2023-03-15T21:46:14.567Z,99244.69
2023-03-15T21:48:42.007Z,99247.09
2023-03-15T21:51:09.702Z,99251.44
2023-03-15T21:53:36.743Z,99236.13
2023-03-15T21:56:04.058Z,99237.72
2023-03-15T21:58:31.392Z,99231.47
2023-03-15T22:01:06.150Z,99224.34
2023-03-15T22:03:33.957Z,99222.75
2023-03-15T22:06:01.041Z,99214.84
2023-03-15T22:08:28.395Z,99215.66
2023-03-15T22:10:57.034Z,99215.66
2023-03-15T22:13:24.010Z,99216.44
2023-03-15T22:15:52.371Z,99214.47
2023-03-15T22:18:20.010Z,99215.66
2023-03-15T22:20:48.924Z,99212.50
2023-03-15T22:23:15.570Z,99210.13
2023-03-15T22:25:42.803Z,99207.38
2023-03-15T22:28:10.345Z,99205.41
2023-03-15T22:30:37.188Z,99208.94
2023-03-15T22:33:04.636Z,99208.19
2023-03-15T22:35:31.759Z,99211.72
2023-03-15T22:37:58.831Z,99208.59
2023-03-15T22:40:28.017Z,99202.28
2023-03-15T22:42:57.250Z,99202.28
2023-03-15T22:45:26.184Z,99196.75
2023-03-15T22:47:53.497Z,99196.81
2023-03-15T22:50:20.504Z,99196.88
2023-03-15T22:52:47.665Z,99199.69
2023-03-15T22:55:14.492Z,99195.38
2023-03-15T22:57:41.115Z,99198.16
2023-03-15T23:00:14.173Z,99204.88
2023-03-15T23:02:44.677Z,99201.00
2023-03-15T23:05:12.813Z,99202.69
2023-03-15T23:07:40.060Z,99195.66
2023-03-15T23:10:07.578Z,99196.50
2023-03-15T23:12:36.534Z,99196.56
2023-03-15T23:15:04.526Z,99187.53
2023-03-15T23:17:31.639Z,99191.94
2023-03-15T23:19:58.394Z,99178.16
2023-03-15T23:22:25.268Z,99186.56
2023-03-15T23:24:51.895Z,99176.34
2023-03-15T23:27:18.877Z,99169.28
2023-03-15T23:29:54.196Z,99179.19
2023-03-15T23:32:22.007Z,99176.41
2023-03-15T23:34:48.942Z,99180.34
2023-03-15T23:37:15.617Z,99171.63
2023-03-15T23:39:42.914Z,99160.97
2023-03-15T23:42:10.318Z,99160.53
2023-03-15T23:44:37.661Z,99161.31
2023-03-15T23:47:05.776Z,99162.88
2023-03-15T23:49:33.337Z,99157.34
2023-03-15T23:52:05.940Z,99157.34
2023-03-15T23:54:40.263Z,99161.34
2023-03-15T23:57:12.548Z,99151.09
2023-03-15T23:59:39.494Z,99155.00
